Time;durP1;ratioP1;P1;durP2;ratioP2;P2;SDS_P1;SDS_P2;PMS_P1;PMS_P2;Temp;Humidity;BMP_temperature;BMP_pressure;BME280_temperature;BME280_humidity;BME280_pressure;Samples;Min_cycle;Max_cycle;Signal;HPM_P1;HPM_P2
2022/04/30 00:01:01;;;;;;;9.15;5.18;;;256.80;2252.80;;;;;;5050101;28;20086;-56
2022/04/30 00:03:28;;;;;;;9.95;5.07;;;256.70;2252.80;;;;;;5050066;28;20032;-55
2022/04/30 00:05:55;;;;;;;10.68;5.90;;;256.70;2252.80;;;;;;5049959;28;20119;-58
2022/04/30 00:08:21;;;;;;;10.82;6.63;;;256.70;2252.80;;;;;;5050178;28;20053;-55
2022/04/30 00:10:48;;;;;;;8.75;4.90;;;256.70;2252.80;;;;;;5050068;28;20079;-57
2022/04/30 00:13:15;;;;;;;7.88;4.90;;;256.70;2252.80;;;;;;5050388;28;20606;-56
2022/04/30 00:15:41;;;;;;;9.55;4.75;;;256.70;2252.80;;;;;;5031896;28;20120;-55
2022/04/30 00:18:08;;;;;;;6.57;4.10;;;256.60;2252.80;;;;;;5032351;28;20398;-55
2022/04/30 00:20:36;;;;;;;7.43;4.70;;;256.60;2252.80;;;;;;5050049;28;20025;-52
2022/04/30 00:23:02;;;;;;;6.95;4.32;;;256.60;2252.80;;;;;;5050077;28;20041;-56
2022/04/30 00:25:28;;;;;;;6.72;4.13;;;256.60;2252.80;;;;;;5050110;28;20029;-55
2022/04/30 00:27:53;;;;;;;7.82;4.40;;;256.50;2252.80;;;;;;5050019;28;20371;-57
2022/04/30 00:30:19;;;;;;;7.10;3.72;;;256.50;2252.80;;;;;;5049905;28;20024;-56
2022/04/30 00:32:46;;;;;;;7.65;3.45;;;256.40;2252.80;;;;;;5049688;28;20075;-56
2022/04/30 00:35:13;;;;;;;7.80;3.97;;;256.40;2252.80;;;;;;5049846;28;20025;-55
2022/04/30 00:37:39;;;;;;;7.45;4.85;;;256.30;2252.80;;;;;;5049716;28;20033;-54
2022/04/30 00:40:06;;;;;;;6.63;4.13;;;256.30;2252.80;;;;;;5049810;28;20032;-55
2022/04/30 00:42:32;;;;;;;8.95;3.95;;;256.30;2252.80;;;;;;5049264;28;20415;-57
2022/04/30 00:44:58;;;;;;;7.03;4.35;;;256.30;2252.80;;;;;;5049647;28;20032;-57
2022/04/30 00:47:26;;;;;;;6.00;3.70;;;256.30;2252.80;;;;;;5049641;28;20120;-56
2022/04/30 00:49:52;;;;;;;9.68;4.30;;;256.20;2252.80;;;;;;5049795;28;20075;-56
2022/04/30 00:52:18;;;;;;;9.10;5.13;;;256.20;2252.80;;;;;;5049454;28;20058;-57
2022/04/30 00:54:49;;;;;;;5.60;3.67;;;256.10;2252.80;;;;;;5049793;28;20400;-56
2022/04/30 00:57:19;;;;;;;12.05;7.18;;;256.00;2252.80;;;;;;5049528;28;20064;-56
2022/04/30 00:59:47;;;;;;;14.70;8.27;;;256.10;2252.80;;;;;;5049352;28;20025;-54
2022/04/30 01:02:13;;;;;;;14.35;7.10;;;256.10;2252.80;;;;;;5049740;28;20036;-55
2022/04/30 01:04:39;;;;;;;11.15;5.35;;;256.20;2252.80;;;;;;5049490;28;20497;-55
2022/04/30 01:07:09;;;;;;;9.20;4.75;;;256.10;2252.80;;;;;;5049129;28;20160;-56
2022/04/30 01:09:42;;;;;;;7.88;4.22;;;256.10;2252.80;;;;;;5052968;28;20032;-56
2022/04/30 01:12:10;;;;;;;7.22;3.88;;;231.30;2252.80;;;;;;5053482;28;20503;-54
2022/04/30 01:14:40;;;;;;;6.72;3.60;;;231.30;2252.80;;;;;;5053243;28;20115;-56
2022/04/30 01:17:10;;;;;;;5.50;3.60;;;231.30;2252.80;;;;;;5053337;28;20056;-56
2022/04/30 01:19:41;;;;;;;8.57;3.70;;;231.30;2252.80;;;;;;5053437;28;20025;-56
2022/04/30 01:22:20;;;;;;;7.40;4.70;;;256.00;2252.80;;;;;;5053552;28;20104;-57
2022/04/30 01:24:47;;;;;;;7.55;4.45;;;256.00;2252.80;;;;;;5053190;28;20073;-55
2022/04/30 01:27:14;;;;;;;5.38;3.55;;;256.00;2252.80;;;;;;5053235;28;20495;-57
2022/04/30 01:29:40;;;;;;;5.60;3.45;;;231.30;2252.80;;;;;;5053162;28;20026;-56
2022/04/30 01:37:37;;;;;;;7.90;3.28;;;231.20;2252.80;;;;;;5053333;28;20083;-56
2022/04/30 01:40:07;;;;;;;6.75;3.40;;;231.10;2252.80;;;;;;5053027;28;20499;-55
2022/04/30 01:42:42;;;;;;;6.05;4.18;;;230.90;2252.80;;;;;;5053061;28;20033;-56
2022/04/30 01:45:09;;;;;;;6.85;3.40;;;230.90;2252.80;;;;;;5052959;28;20024;-56
2022/04/30 01:47:45;;;;;;;6.50;3.85;;;231.00;2252.80;;;;;;5052710;28;20037;-56
2022/04/30 01:50:12;;;;;;;8.05;3.67;;;231.00;2252.80;;;;;;5053077;28;20036;-55
2022/04/30 01:52:39;;;;;;;6.50;3.33;;;231.10;2252.80;;;;;;5052770;28;20036;-56
2022/04/30 01:55:05;;;;;;;5.10;3.42;;;231.10;2252.80;;;;;;5052590;28;20075;-55
2022/04/30 01:57:31;;;;;;;6.13;3.40;;;231.10;2252.80;;;;;;5052857;28;20028;-55
2022/04/30 01:59:59;;;;;;;6.55;3.80;;;231.00;2252.80;;;;;;5052555;28;20494;-55
2022/04/30 02:02:34;;;;;;;7.43;4.60;;;231.00;2252.80;;;;;;5052524;28;20108;-56
2022/04/30 02:05:03;;;;;;;8.48;4.38;;;231.00;2252.80;;;;;;5052543;28;20029;-56
2022/04/30 02:07:30;;;;;;;5.38;3.05;;;231.00;2252.80;;;;;;5051871;28;20036;-56
2022/04/30 02:09:58;;;;;;;9.13;4.35;;;230.90;2252.80;;;;;;5052552;28;20048;-56
2022/04/30 02:12:27;;;;;;;8.60;4.40;;;230.90;2252.80;;;;;;5052290;28;20057;-55
2022/04/30 02:14:54;;;;;;;6.95;3.33;;;230.90;2252.80;;;;;;5052298;28;20108;-53
2022/04/30 02:17:22;;;;;;;8.52;4.18;;;230.90;2252.80;;;;;;5052425;28;20021;-56
2022/04/30 02:22:38;;;;;;;5.88;3.75;;;230.80;2252.80;;;;;;5052061;28;20031;-55
2022/04/30 02:25:09;;;;;;;6.05;3.22;;;230.90;2252.80;;;;;;5052154;28;20100;-55
2022/04/30 02:27:39;;;;;;;5.75;3.78;;;230.90;2252.80;;;;;;5052004;28;20380;-54
2022/04/30 02:30:19;;;;;;;7.10;3.83;;;230.90;2252.80;;;;;;5052003;28;20051;-52
2022/04/30 02:32:53;;;;;;;7.72;3.83;;;230.80;2252.80;;;;;;5051827;28;20055;-53
2022/04/30 02:35:21;;;;;;;9.45;3.65;;;230.80;2252.80;;;;;;5052073;28;20100;-56
2022/04/30 02:37:52;;;;;;;5.35;3.92;;;230.80;2252.80;;;;;;5051912;28;20111;-55
2022/04/30 02:40:20;;;;;;;6.85;3.92;;;230.90;2252.80;;;;;;5051632;28;20028;-55
2022/04/30 02:42:46;;;;;;;5.57;3.55;;;230.90;2252.80;;;;;;5051654;28;20518;-56
2022/04/30 02:45:13;;;;;;;8.77;3.97;;;230.90;2252.80;;;;;;5051753;28;20057;-56
2022/04/30 02:47:40;;;;;;;8.95;5.35;;;231.00;2252.80;;;;;;5051587;28;20127;-54
2022/04/30 02:50:10;;;;;;;4.93;3.28;;;231.10;2252.80;;;;;;5051629;28;20095;-55
2022/04/30 02:52:37;;;;;;;5.22;3.45;;;231.00;2252.80;;;;;;5051776;28;20454;-58
2022/04/30 02:55:05;;;;;;;5.82;4.20;;;231.00;2252.80;;;;;;5051661;28;20475;-54
2022/04/30 03:00:39;;;;;;;6.30;3.85;;;231.10;2252.80;;;;;;5051662;28;20078;-54
2022/04/30 03:03:06;;;;;;;5.40;3.58;;;231.20;2252.80;;;;;;5051300;28;20450;-55
2022/04/30 03:05:32;;;;;;;6.70;3.38;;;231.20;2252.80;;;;;;5051383;28;20108;-55
2022/04/30 03:08:00;;;;;;;4.65;3.38;;;231.20;2252.80;;;;;;5050963;28;20519;-56
2022/04/30 03:10:26;;;;;;;6.43;3.88;;;231.20;2252.80;;;;;;5051078;28;20017;-55
2022/04/30 03:12:52;;;;;;;8.73;3.85;;;231.20;2252.80;;;;;;5051227;28;20410;-56
2022/04/30 03:15:21;;;;;;;9.90;4.30;;;231.20;2252.80;;;;;;5050807;28;20154;-54
2022/04/30 03:23:16;;;;;;;5.18;3.55;;;231.30;2252.80;;;;;;5051215;28;20036;-56
2022/04/30 03:25:42;;;;;;;7.07;4.03;;;256.00;2252.80;;;;;;5050931;28;20025;-56
2022/04/30 03:28:07;;;;;;;7.30;4.20;;;256.00;2252.80;;;;;;5050962;28;20032;-57
2022/04/30 03:30:33;;;;;;;7.80;4.07;;;256.00;2252.80;;;;;;5050818;28;20029;-56
2022/04/30 03:32:59;;;;;;;7.13;4.35;;;256.00;2252.80;;;;;;5049829;28;20025;-56
2022/04/30 03:35:25;;;;;;;7.90;4.65;;;256.10;2252.80;;;;;;5050629;28;20036;-55
2022/04/30 03:37:51;;;;;;;6.13;3.25;;;256.10;2252.80;;;;;;5050720;28;20463;-56
2022/04/30 03:40:16;;;;;;;8.40;4.03;;;256.00;2252.80;;;;;;5050698;28;20096;-53
2022/04/30 03:42:42;;;;;;;6.63;3.97;;;256.10;2252.80;;;;;;5051086;28;20025;-56
2022/04/30 03:45:08;;;;;;;6.85;3.65;;;256.20;2252.80;;;;;;5050393;28;20112;-56
2022/04/30 03:47:37;;;;;;;8.13;3.78;;;256.20;2252.80;;;;;;5050741;28;20040;-56
2022/04/30 03:50:04;;;;;;;6.65;3.88;;;256.30;2252.80;;;;;;5050611;28;20025;-57
2022/04/30 03:52:30;;;;;;;5.20;3.83;;;256.30;2252.80;;;;;;5050517;28;20074;-57
2022/04/30 03:54:56;;;;;;;7.57;3.83;;;256.40;2252.80;;;;;;5050242;28;20029;-53
2022/04/30 03:57:22;;;;;;;6.90;3.90;;;256.40;2252.80;;;;;;5043962;28;20021;-56
2022/04/30 03:59:49;;;;;;;6.43;3.33;;;256.40;2252.80;;;;;;5039958;28;20112;-54
2022/04/30 04:02:15;;;;;;;5.53;3.38;;;256.50;2252.80;;;;;;5049025;28;20033;-54
2022/04/30 04:04:42;;;;;;;7.72;3.63;;;256.70;2252.80;;;;;;5050621;28;20391;-56
2022/04/30 04:07:07;;;;;;;6.35;4.45;;;256.80;2252.80;;;;;;5049991;28;20495;-56
2022/04/30 04:09:33;;;;;;;4.90;3.17;;;281.60;2278.40;;;;;;5050400;28;20086;-54
2022/04/30 04:11:59;;;;;;;6.60;3.35;;;281.80;2278.40;;;;;;5050035;28;20475;-56
2022/04/30 04:19:52;;;;;;;8.80;5.88;;;282.30;2278.40;;;;;;5030269;28;20555;-56
2022/04/30 04:22:18;;;;;;;12.75;7.10;;;282.50;2278.40;;;;;;5030076;28;20112;-53
2022/04/30 04:27:29;;;;;;;12.00;5.97;;;307.40;2304.00;;;;;;5029996;28;20072;-56
2022/04/30 04:29:55;;;;;;;7.93;5.05;;;307.50;2304.00;;;;;;5030055;28;20097;-56
2022/04/30 04:32:22;;;;;;;6.22;4.10;;;307.30;2304.00;;;;;;5030258;28;20029;-60
2022/04/30 04:34:48;;;;;;;7.05;4.20;;;307.30;2304.00;;;;;;5030069;28;20362;-60
2022/04/30 04:37:15;;;;;;;6.65;3.90;;;307.50;2304.00;;;;;;5030043;28;20083;-60
2022/04/30 04:39:41;;;;;;;6.93;3.72;;;307.60;2304.00;;;;;;5030118;28;20033;-60
2022/04/30 04:42:07;;;;;;;6.60;4.88;;;307.90;2304.00;;;;;;5030329;28;20033;-60
2022/04/30 04:44:33;;;;;;;6.50;3.83;;;308.00;2304.00;;;;;;5033753;28;20029;-59
2022/04/30 04:47:00;;;;;;;6.95;4.03;;;308.00;2304.00;;;;;;5033519;28;20049;-60
2022/04/30 04:49:27;;;;;;;7.18;4.53;;;307.80;2304.00;;;;;;5033742;28;20025;-60
2022/04/30 04:51:53;;;;;;;7.50;4.38;;;307.90;2304.00;;;;;;5034018;28;20029;-61
2022/04/30 04:54:19;;;;;;;6.45;4.57;;;307.80;2304.00;;;;;;5033756;28;20053;-60
2022/04/30 04:56:45;;;;;;;6.65;3.95;;;307.90;2304.00;;;;;;5041603;28;20471;-60
2022/04/30 04:59:13;;;;;;;9.25;4.65;;;307.90;2304.00;;;;;;5032455;28;20026;-59
2022/04/30 05:01:40;;;;;;;8.88;4.00;;;307.90;2304.00;;;;;;5035668;28;20040;-60
2022/04/30 05:04:08;;;;;;;6.60;3.92;;;307.80;2304.00;;;;;;5053597;28;20100;-60
2022/04/30 05:06:34;;;;;;;6.82;3.83;;;307.80;2304.00;;;;;;5053367;28;20053;-59
2022/04/30 05:09:01;;;;;;;6.80;4.15;;;307.90;2304.00;;;;;;5053790;28;20040;-60
2022/04/30 05:11:26;;;;;;;11.80;6.43;;;308.00;2304.00;;;;;;5053304;28;20475;-60
2022/04/30 05:13:52;;;;;;;7.97;5.18;;;308.10;2304.00;;;;;;5053569;28;20100;-60
2022/04/30 05:16:18;;;;;;;8.65;4.60;;;332.90;2329.60;;;;;;5053143;28;20032;-60
2022/04/30 05:18:43;;;;;;;10.25;4.75;;;333.20;2329.60;;;;;;5053364;28;20114;-60
2022/04/30 05:21:09;;;;;;;9.65;4.50;;;333.30;2329.60;;;;;;5053298;28;20013;-59
2022/04/30 05:23:37;;;;;;;7.28;4.28;;;333.50;2329.60;;;;;;5053004;28;20070;-60
2022/04/30 05:26:03;;;;;;;7.55;4.25;;;333.50;2329.60;;;;;;5053336;28;20395;-60
2022/04/30 05:28:28;;;;;;;8.73;5.35;;;333.70;2329.60;;;;;;5052946;28;20029;-60
2022/04/30 05:30:54;;;;;;;6.90;4.13;;;358.40;2329.60;;;;;;5053214;28;20013;-60
2022/04/30 05:33:20;;;;;;;8.10;5.25;;;358.60;2329.60;;;;;;5053202;28;20103;-61
2022/04/30 05:35:46;;;;;;;6.68;4.22;;;358.60;2329.60;;;;;;5046639;28;20460;-60
2022/04/30 05:38:11;;;;;;;8.48;4.68;;;358.50;2329.60;;;;;;5042459;28;20021;-60
2022/04/30 05:40:38;;;;;;;8.38;4.38;;;333.70;2329.60;;;;;;5042758;28;20029;-60
2022/04/30 05:43:04;;;;;;;9.55;5.05;;;333.60;2329.60;;;;;;5049959;28;20467;-60
2022/04/30 05:45:30;;;;;;;8.50;4.28;;;333.70;2329.60;;;;;;5052816;28;20383;-60
2022/04/30 05:47:56;;;;;;;7.20;4.75;;;333.60;2329.60;;;;;;5045823;28;20455;-60
2022/04/30 05:50:22;;;;;;;8.40;4.95;;;333.60;2329.60;;;;;;5032860;28;20112;-60
2022/04/30 05:52:48;;;;;;;9.13;5.55;;;333.70;2329.60;;;;;;5032720;28;20091;-60
2022/04/30 05:55:14;;;;;;;8.45;4.70;;;333.70;2329.60;;;;;;5031743;28;20474;-60
2022/04/30 05:57:41;;;;;;;8.13;4.82;;;358.60;2329.60;;;;;;5032872;28;20021;-60
2022/04/30 06:00:08;;;;;;;7.18;5.15;;;358.80;2329.60;;;;;;5032629;28;20229;-60
2022/04/30 06:02:34;;;;;;;7.28;4.53;;;359.00;2329.60;;;;;;5032551;28;20079;-60
2022/04/30 06:05:00;;;;;;;9.13;5.43;;;359.10;2329.60;;;;;;5032527;28;20029;-60
2022/04/30 06:07:26;;;;;;;10.05;5.57;;;359.20;2329.60;;;;;;5032037;28;20052;-60
2022/04/30 06:09:52;;;;;;;14.55;7.32;;;359.30;2329.60;;;;;;5032696;28;20061;-59
2022/04/30 06:12:19;;;;;;;16.58;9.10;;;359.10;2329.60;;;;;;5034856;28;20064;-60
2022/04/30 06:14:45;;;;;;;10.48;7.30;;;359.10;2329.60;;;;;;5032230;28;20022;-60
2022/04/30 06:17:11;;;;;;;15.13;8.15;;;359.00;2329.60;;;;;;5032459;28;20357;-60
2022/04/30 06:19:37;;;;;;;15.98;7.72;;;359.30;2329.60;;;;;;5032114;28;20175;-61
2022/04/30 06:22:03;;;;;;;14.32;7.80;;;384.40;2329.60;;;;;;5032445;28;20029;-61
2022/04/30 06:24:29;;;;;;;9.38;6.45;;;384.90;2329.60;;;;;;5032228;28;20018;-60
2022/04/30 06:26:55;;;;;;;8.95;7.13;;;409.90;2355.20;;;;;;5032174;28;20506;-60
2022/04/30 06:29:22;;;;;;;9.60;7.28;;;410.00;2355.20;;;;;;5031665;28;20030;-62
2022/04/30 06:31:50;;;;;;;11.60;7.43;;;410.00;2355.20;;;;;;5031826;28;20051;-60
2022/04/30 06:34:16;;;;;;;13.32;7.20;;;409.90;2355.20;;;;;;5031725;28;20463;-62
2022/04/30 06:36:42;;;;;;;11.30;7.13;;;409.80;2355.20;;;;;;5031789;28;20076;-60
2022/04/30 06:39:08;;;;;;;13.65;7.78;;;410.10;2355.20;;;;;;5031846;28;20415;-60
2022/04/30 06:41:34;;;;;;;12.27;5.85;;;410.30;2355.20;;;;;;5031938;28;20021;-60
2022/04/30 06:43:59;;;;;;;12.60;7.65;;;410.30;2355.20;;;;;;5031639;28;20472;-60
2022/04/30 06:46:25;;;;;;;10.52;6.80;;;410.40;2355.20;;;;;;5031554;28;20037;-61
2022/04/30 06:48:51;;;;;;;10.85;7.38;;;435.30;2355.20;;;;;;5031795;28;20100;-62
2022/04/30 06:51:16;;;;;;;13.98;7.53;;;435.30;2355.20;;;;;;5031806;28;20383;-59
2022/04/30 06:59:11;;;;;;;12.32;7.72;;;461.50;2380.80;;;;;;5031969;28;20056;-63
2022/04/30 07:01:42;;;;;;;12.35;8.63;;;589.00;2048.00;;;;;;5031344;28;20099;-61
2022/04/30 07:04:09;;;;;;;12.23;8.27;;;666.00;1612.80;;;;;;5031751;28;20022;-61
2022/04/30 07:06:35;;;;;;;10.55;7.43;;;666.00;1510.40;;;;;;5030791;28;20053;-61
2022/04/30 07:09:06;;;;;;;11.90;8.68;;;640.70;1510.40;;;;;;5031617;28;20022;-62
2022/04/30 07:11:32;;;;;;;14.05;8.27;;;742.60;1408.00;;;;;;5031229;28;20365;-62
2022/04/30 07:13:58;;;;;;;9.32;7.60;;;793.60;1331.20;;;;;;5030892;28;20053;-64
2022/04/30 07:16:24;;;;;;;9.43;8.45;;;793.70;1254.40;;;;;;5031029;28;20059;-64
2022/04/30 07:18:50;;;;;;;9.70;7.53;;;794.00;1228.80;;;;;;5031334;28;20036;-63
2022/04/30 07:21:16;;;;;;;11.35;8.98;;;743.00;1305.60;;;;;;5031178;28;20428;-62
2022/04/30 07:23:42;;;;;;;9.45;8.30;;;793.70;1228.80;;;;;;5031229;28;20036;-63
2022/04/30 07:26:09;;;;;;;7.55;6.68;;;794.20;1203.20;;;;;;5031065;28;20037;-62
2022/04/30 07:28:35;;;;;;;9.27;8.38;;;845.70;1126.40;;;;;;5031000;28;20032;-64
2022/04/30 07:31:05;;;;;;;10.15;8.02;;;871.10;1075.20;;;;;;5030799;28;20567;-62
2022/04/30 07:33:31;;;;;;;12.82;10.68;;;896.80;1024.00;;;;;;5013455;28;20391;-64
2022/04/30 07:35:57;;;;;;;17.95;13.18;;;871.10;1075.20;;;;;;5030659;28;20076;-64
2022/04/30 07:38:24;;;;;;;20.17;13.30;;;947.30;998.40;;;;;;5030866;28;20029;-66
2022/04/30 07:40:49;;;;;;;8.07;6.45;;;973.30;947.20;;;;;;5030585;28;20487;-63
2022/04/30 07:43:15;;;;;;;24.30;13.68;;;870.40;1049.60;;;;;;5030582;28;20072;-62
2022/04/30 07:45:41;;;;;;;12.80;10.77;;;794.20;1152.00;;;;;;5030659;28;20026;-61
2022/04/30 07:48:07;;;;;;;91.05;37.95;;;819.30;1152.00;;;;;;5030482;28;20053;-63
2022/04/30 07:50:36;;;;;;;17.00;13.88;;;819.20;1152.00;;;;;;5030547;28;20084;-61
2022/04/30 07:53:08;;;;;;;11.70;9.82;;;871.00;1049.60;;;;;;5030842;28;20423;-62
2022/04/30 07:55:35;;;;;;;34.13;20.08;;;921.60;998.40;;;;;;5030645;28;20060;-61
2022/04/30 07:58:02;;;;;;;11.13;9.98;;;896.40;972.80;;;;;;5030438;28;20121;-64
2022/04/30 08:00:28;;;;;;;12.15;10.95;;;947.70;972.80;;;;;;5030247;28;20025;-61
2022/04/30 08:02:56;;;;;;;8.18;6.47;;;973.60;896.00;;;;;;5030394;28;20025;-61
2022/04/30 08:05:25;;;;;;;9.02;7.82;;;819.80;1100.80;;;;;;5030265;28;20025;-62
2022/04/30 08:07:52;;;;;;;8.23;6.65;;;768.10;1203.20;;;;;;5012513;28;20095;-61
2022/04/30 08:10:18;;;;;;;8.43;7.32;;;742.50;1203.20;;;;;;5030047;28;20029;-63
2022/04/30 08:12:44;;;;;;;9.02;6.88;;;717.70;1228.80;;;;;;5030367;28;20028;-63
2022/04/30 08:15:10;;;;;;;10.13;7.60;;;742.70;1228.80;;;;;;5030339;28;20539;-62
2022/04/30 08:17:38;;;;;;;9.98;7.40;;;743.30;1203.20;;;;;;5029440;28;20034;-62
2022/04/30 08:20:08;;;;;;;8.93;6.93;;;717.60;1228.80;;;;;;5030328;28;20029;-62
2022/04/30 08:22:34;;;;;;;9.50;7.60;;;743.30;1203.20;;;;;;5030012;28;20030;-63
2022/04/30 08:25:03;;;;;;;8.07;6.65;;;768.90;1152.00;;;;;;5029941;28;20034;-64
2022/04/30 08:27:30;;;;;;;13.23;8.43;;;819.20;1126.40;;;;;;5029740;28;20052;-61
2022/04/30 08:29:55;;;;;;;8.00;7.05;;;793.90;1152.00;;;;;;5029762;28;20504;-63
2022/04/30 08:32:28;;;;;;;7.78;6.22;;;717.00;1280.00;;;;;;5030226;28;20112;-61
2022/04/30 08:34:54;;;;;;;7.38;5.68;;;640.90;1382.40;;;;;;5030076;28;20025;-62
2022/04/30 08:37:20;;;;;;;7.38;5.53;;;640.90;1382.40;;;;;;5030013;28;20396;-62
2022/04/30 08:39:48;;;;;;;5.45;4.32;;;615.00;1433.60;;;;;;5029631;28;20072;-62
2022/04/30 08:42:16;;;;;;;7.22;5.70;;;614.80;1459.20;;;;;;5029990;28;20025;-62
2022/04/30 08:44:42;;;;;;;7.75;5.10;;;589.50;1510.40;;;;;;5029909;28;20021;-61
2022/04/30 08:47:11;;;;;;;6.05;4.53;;;589.50;1510.40;;;;;;5029847;28;20374;-61
2022/04/30 08:49:41;;;;;;;7.78;4.90;;;614.50;1459.20;;;;;;5012574;28;20101;-62
2022/04/30 08:52:12;;;;;;;6.35;4.07;;;589.30;1536.00;;;;;;5029629;28;20034;-63
2022/04/30 08:54:38;;;;;;;7.47;4.80;;;563.80;1612.80;;;;;;5029657;28;20554;-63
2022/04/30 08:57:03;;;;;;;6.82;4.72;;;563.40;1638.40;;;;;;5029700;28;20033;-61
2022/04/30 08:59:30;;;;;;;9.02;5.53;;;564.00;1612.80;;;;;;5029636;28;20384;-61
2022/04/30 09:01:58;;;;;;;8.50;5.72;;;564.00;1612.80;;;;;;5029711;28;20112;-62
2022/04/30 09:04:41;;;;;;;18.55;9.10;;;589.20;1612.80;;;;;;5029596;28;20033;-60
2022/04/30 09:07:13;;;;;;;8.35;5.15;;;589.50;1561.60;;;;;;5029651;28;20128;-60
2022/04/30 09:09:39;;;;;;;5.73;3.63;;;564.10;1612.80;;;;;;5029322;28;20033;-62
2022/04/30 09:12:13;;;;;;;6.50;4.47;;;563.80;1638.40;;;;;;5029921;28;20030;-61
2022/04/30 09:14:40;;;;;;;6.40;4.30;;;588.90;1561.60;;;;;;5029495;28;20018;-61
2022/04/30 09:17:09;;;;;;;6.93;5.00;;;588.80;1561.60;;;;;;5028714;28;20034;-61
2022/04/30 09:19:51;;;;;;;7.22;4.65;;;588.90;1587.20;;;;;;5029630;28;20760;-60
2022/04/30 09:22:27;;;;;;;5.88;4.10;;;563.70;1638.40;;;;;;5029169;28;20037;-61
2022/04/30 09:24:53;;;;;;;6.22;3.80;;;563.80;1638.40;;;;;;5029544;28;20049;-60
2022/04/30 09:27:19;;;;;;;6.55;4.43;;;589.00;1587.20;;;;;;5029059;28;20120;-59
2022/04/30 09:29:45;;;;;;;7.32;5.15;;;564.10;1612.80;;;;;;5031449;28;20036;-61
2022/04/30 09:32:18;;;;;;;8.35;5.35;;;563.60;1638.40;;;;;;5033440;28;20156;-61
2022/04/30 09:37:42;;;;;;;5.53;3.78;;;588.90;1612.80;;;;;;5033536;28;20078;-61
2022/04/30 09:40:13;;;;;;;6.90;4.65;;;589.00;1587.20;;;;;;5032929;28;20064;-60
2022/04/30 09:42:43;;;;;;;7.05;4.72;;;589.50;1587.20;;;;;;5033012;28;20440;-61
2022/04/30 09:45:23;;;;;;;6.60;3.90;;;589.70;1561.60;;;;;;5032919;28;20041;-61
2022/04/30 09:47:50;;;;;;;5.40;3.88;;;614.80;1612.80;;;;;;5032902;28;20041;-61
2022/04/30 09:55:53;;;;;;;7.07;4.20;;;614.40;1587.20;;;;;;4952354;29;20141;-62
2022/04/30 09:58:39;;;;;;;6.00;4.47;;;589.60;1587.20;;;;;;4952325;29;20086;-61
2022/04/30 10:01:07;;;;;;;5.85;4.10;;;589.70;1561.60;;;;;;4952242;29;20395;-62
2022/04/30 10:03:34;;;;;;;6.45;3.65;;;614.60;1510.40;;;;;;4952535;29;20039;-62
2022/04/30 10:06:04;;;;;;;10.15;5.78;;;614.80;1510.40;;;;;;4952135;29;20513;-62
2022/04/30 10:08:34;;;;;;;6.63;4.65;;;589.70;1587.20;;;;;;4952272;29;20434;-61
2022/04/30 10:11:25;;;;;;;6.05;3.65;;;614.70;1536.00;;;;;;4952200;29;20102;-61
2022/04/30 10:14:09;;;;;;;6.03;3.88;;;614.60;1536.00;;;;;;4952296;29;20040;-62
2022/04/30 10:16:35;;;;;;;4.28;3.35;;;589.40;1587.20;;;;;;4952407;29;20059;-61
2022/04/30 10:19:10;;;;;;;4.68;3.17;;;589.50;1561.60;;;;;;4952248;29;20814;-61
2022/04/30 10:21:37;;;;;;;4.07;2.90;;;614.60;1536.00;;;;;;4951898;29;20032;-62
2022/04/30 10:24:04;;;;;;;4.53;2.75;;;589.20;1561.60;;;;;;4952260;29;20031;-62
2022/04/30 10:26:30;;;;;;;4.85;3.33;;;589.50;1561.60;;;;;;4951982;29;20039;-63
2022/04/30 10:29:12;;;;;;;4.20;2.95;;;589.30;1561.60;;;;;;4951863;29;20529;-61
2022/04/30 10:31:45;;;;;;;4.95;3.33;;;589.10;1587.20;;;;;;4953219;28;20031;-61
2022/04/30 10:34:12;;;;;;;6.75;3.70;;;588.90;1612.80;;;;;;5032440;28;20076;-62
2022/04/30 10:36:39;;;;;;;5.65;3.40;;;589.30;1561.60;;;;;;5031957;28;20029;-64
2022/04/30 10:39:09;;;;;;;8.80;3.55;;;589.00;1587.20;;;;;;5031811;28;20040;-62
2022/04/30 10:41:42;;;;;;;5.90;2.80;;;589.40;1587.20;;;;;;5031143;28;20495;-61
2022/04/30 10:44:08;;;;;;;;;;;589.60;1536.00;;;;;;5032345;28;20037;-61
2022/04/30 10:46:39;;;;;;;4.13;2.95;;;614.50;1536.00;;;;;;5032123;28;19920;-61
2022/04/30 10:49:06;;;;;;;3.33;2.60;;;614.50;1510.40;;;;;;5032006;28;20025;-61
2022/04/30 10:51:38;;;;;;;3.47;2.80;;;589.60;1536.00;;;;;;5032002;28;20029;-63
2022/04/30 10:54:10;;;;;;;5.10;3.25;;;589.70;1536.00;;;;;;5031820;28;20052;-61
2022/04/30 10:56:38;;;;;;;5.57;3.20;;;614.80;1536.00;;;;;;5031563;28;20030;-60
2022/04/30 10:59:05;;;;;;;5.07;3.15;;;640.00;1510.40;;;;;;5031766;28;20029;-61
2022/04/30 11:01:31;;;;;;;4.63;3.28;;;615.10;1433.60;;;;;;5031740;28;20032;-62
2022/04/30 11:03:57;;;;;;;5.50;4.18;;;614.60;1510.40;;;;;;5031299;28;20392;-63
2022/04/30 11:06:25;;;;;;;6.35;3.92;;;614.90;1459.20;;;;;;5013746;28;20033;-62
2022/04/30 11:09:07;;;;;;;3.65;2.85;;;615.20;1459.20;;;;;;5031537;28;20036;-59
2022/04/30 11:11:35;;;;;;;7.50;5.00;;;640.10;1408.00;;;;;;5031541;28;20104;-62
2022/04/30 11:14:04;;;;;;;5.28;3.85;;;640.20;1433.60;;;;;;5031381;28;20488;-61
2022/04/30 11:16:35;;;;;;;4.85;3.20;;;640.10;1433.60;;;;;;5030983;28;20037;-60
2022/04/30 11:19:09;;;;;;;4.05;2.83;;;640.50;1433.60;;;;;;5031340;28;20021;-60
2022/04/30 11:21:37;;;;;;;5.57;2.80;;;640.10;1459.20;;;;;;5031035;28;20056;-61
2022/04/30 11:24:04;;;;;;;4.40;3.03;;;640.00;1484.80;;;;;;5031202;28;20057;-60
2022/04/30 11:26:30;;;;;;;3.50;2.58;;;614.60;1484.80;;;;;;5030966;28;20088;-62
2022/04/30 11:28:57;;;;;;;4.70;3.60;;;614.40;1510.40;;;;;;5031196;28;20033;-60
2022/04/30 11:31:23;;;;;;;4.90;3.28;;;589.60;1510.40;;;;;;5031190;28;20060;-62
2022/04/30 11:33:49;;;;;;;4.30;3.00;;;614.60;1510.40;;;;;;5030813;28;20060;-62
2022/04/30 11:36:15;;;;;;;4.13;2.95;;;614.70;1510.40;;;;;;5030717;28;20026;-61
2022/04/30 11:38:53;;;;;;;5.68;2.95;;;614.80;1459.20;;;;;;5013119;28;20056;-62
2022/04/30 11:41:18;;;;;;;4.05;2.70;;;615.10;1536.00;;;;;;5030614;28;20022;-59
2022/04/30 11:43:44;;;;;;;3.72;2.70;;;615.20;1459.20;;;;;;5030890;28;20527;-62
2022/04/30 11:46:10;;;;;;;4.40;2.92;;;615.10;1459.20;;;;;;5030716;28;20468;-61
2022/04/30 11:48:40;;;;;;;4.07;2.65;;;615.00;1484.80;;;;;;5030543;28;20120;-63
2022/04/30 11:51:07;;;;;;;4.35;2.97;;;614.90;1459.20;;;;;;5030446;28;20479;-62
2022/04/30 11:53:34;;;;;;;4.60;2.95;;;615.10;1484.80;;;;;;5012219;28;20033;-61
2022/04/30 11:56:00;;;;;;;4.20;2.67;;;615.10;1459.20;;;;;;5030500;28;20546;-62
2022/04/30 11:58:25;;;;;;;4.00;2.83;;;615.10;1484.80;;;;;;5030376;28;20107;-63
2022/04/30 12:00:52;;;;;;;4.65;3.20;;;614.70;1510.40;;;;;;5030570;28;20044;-62
2022/04/30 12:03:28;;;;;;;4.47;2.97;;;614.70;1510.40;;;;;;5030127;28;20033;-63
2022/04/30 12:05:53;;;;;;;4.90;2.92;;;589.30;1510.40;;;;;;5030459;28;20063;-61
2022/04/30 12:08:19;;;;;;;4.50;2.70;;;589.50;1536.00;;;;;;5030238;28;20065;-64
2022/04/30 12:10:57;;;;;;;4.32;2.92;;;588.90;1587.20;;;;;;5030136;28;20026;-61
2022/04/30 12:13:24;;;;;;;4.97;3.05;;;589.00;1561.60;;;;;;5030278;28;20030;-61
2022/04/30 12:16:01;;;;;;;6.57;3.17;;;564.10;1561.60;;;;;;5029956;28;20096;-61
2022/04/30 12:27:02;;;;;;;5.25;2.50;;;589.00;1536.00;;;;;;5030103;28;20045;-61
2022/04/30 12:29:32;;;;;;;5.30;2.80;;;564.00;1510.40;;;;;;5029859;28;20533;-61
2022/04/30 12:32:02;;;;;;;3.72;2.38;;;564.10;1459.20;;;;;;5029891;28;20562;-60
2022/04/30 12:34:28;;;;;;;3.92;2.97;;;564.00;1433.60;;;;;;5029873;28;20022;-63
2022/04/30 12:37:00;;;;;;;3.90;2.53;;;564.00;1484.80;;;;;;5030269;28;20468;-61
2022/04/30 12:39:26;;;;;;;3.45;2.25;;;588.80;1459.20;;;;;;5033073;28;20029;-61
2022/04/30 12:41:53;;;;;;;4.80;2.83;;;589.20;1433.60;;;;;;5032997;28;20463;-63
2022/04/30 12:44:22;;;;;;;3.38;2.50;;;589.40;1433.60;;;;;;5032995;28;20029;-62
2022/04/30 12:46:49;;;;;;;4.05;2.60;;;589.40;1433.60;;;;;;5033011;28;20092;-61
2022/04/30 12:49:15;;;;;;;3.70;2.35;;;589.70;1459.20;;;;;;5033378;28;20017;-61
2022/04/30 12:51:42;;;;;;;3.80;2.50;;;589.60;1459.20;;;;;;5033151;28;20029;-60
2022/04/30 12:54:11;;;;;;;3.88;3.08;;;614.50;1459.20;;;;;;5032747;28;20025;-61
2022/04/30 12:56:38;;;;;;;5.03;2.58;;;589.70;1459.20;;;;;;5032758;28;20476;-59
2022/04/30 12:59:03;;;;;;;4.82;3.28;;;614.40;1433.60;;;;;;5032989;28;20032;-61
2022/04/30 13:01:29;;;;;;;3.38;2.38;;;589.30;1484.80;;;;;;5033026;28;20030;-59
2022/04/30 13:03:56;;;;;;;4.65;2.90;;;589.10;1484.80;;;;;;5015364;28;20491;-62
2022/04/30 13:06:22;;;;;;;4.43;3.10;;;589.70;1459.20;;;;;;5036176;28;20065;-59